sensor_id;sensor_type;location;lat;lon;timestamp;P1;durP1;ratioP1;P2;durP2;ratioP2
55037;SDS011;40937;53.594;10.034;2023-11-21T00:00:39;11.48;;;10.38;;
55037;SDS011;40937;53.594;10.034;2023-11-21T00:03:09;11.95;;;10.75;;
55037;SDS011;40937;53.594;10.034;2023-11-21T00:05:37;13.20;;;12.10;;
55037;SDS011;40937;53.594;10.034;2023-11-21T00:08:05;13.75;;;12.45;;
55037;SDS011;40937;53.594;10.034;2023-11-21T00:10:33;13.93;;;12.73;;
55037;SDS011;40937;53.594;10.034;2023-11-21T00:13:00;13.43;;;11.95;;
55037;SDS011;40937;53.594;10.034;2023-11-21T00:15:28;14.13;;;12.70;;
55037;SDS011;40937;53.594;10.034;2023-11-21T00:17:55;15.93;;;14.27;;
55037;SDS011;40937;53.594;10.034;2023-11-21T00:20:22;12.60;;;11.57;;
55037;SDS011;40937;53.594;10.034;2023-11-21T00:22:49;12.40;;;11.38;;
55037;SDS011;40937;53.594;10.034;2023-11-21T00:25:18;11.48;;;10.48;;
55037;SDS011;40937;53.594;10.034;2023-11-21T00:27:45;14.27;;;11.13;;
55037;SDS011;40937;53.594;10.034;2023-11-21T00:30:13;12.57;;;10.35;;
55037;SDS011;40937;53.594;10.034;2023-11-21T00:32:40;11.82;;;10.93;;
55037;SDS011;40937;53.594;10.034;2023-11-21T00:35:08;11.13;;;10.18;;
55037;SDS011;40937;53.594;10.034;2023-11-21T00:37:36;10.90;;;10.00;;
55037;SDS011;40937;53.594;10.034;2023-11-21T00:40:06;11.93;;;10.88;;
55037;SDS011;40937;53.594;10.034;2023-11-21T00:42:36;11.98;;;10.75;;
55037;SDS011;40937;53.594;10.034;2023-11-21T00:45:05;11.98;;;10.93;;
55037;SDS011;40937;53.594;10.034;2023-11-21T00:47:33;14.77;;;11.38;;
55037;SDS011;40937;53.594;10.034;2023-11-21T00:50:00;15.07;;;12.07;;
55037;SDS011;40937;53.594;10.034;2023-11-21T00:52:27;16.05;;;13.55;;
55037;SDS011;40937;53.594;10.034;2023-11-21T00:54:54;14.40;;;13.20;;
55037;SDS011;40937;53.594;10.034;2023-11-21T00:57:21;16.10;;;14.52;;
55037;SDS011;40937;53.594;10.034;2023-11-21T00:59:54;17.42;;;15.70;;
55037;SDS011;40937;53.594;10.034;2023-11-21T01:02:24;19.40;;;14.80;;
55037;SDS011;40937;53.594;10.034;2023-11-21T01:04:53;16.40;;;14.70;;
55037;SDS011;40937;53.594;10.034;2023-11-21T01:07:23;16.38;;;14.68;;
55037;SDS011;40937;53.594;10.034;2023-11-21T01:09:50;16.65;;;15.15;;
55037;SDS011;40937;53.594;10.034;2023-11-21T01:12:17;18.65;;;16.67;;
55037;SDS011;40937;53.594;10.034;2023-11-21T01:14:45;18.27;;;16.40;;
55037;SDS011;40937;53.594;10.034;2023-11-21T01:17:13;23.15;;;15.90;;
55037;SDS011;40937;53.594;10.034;2023-11-21T01:19:40;17.30;;;14.98;;
55037;SDS011;40937;53.594;10.034;2023-11-21T01:22:08;15.93;;;14.27;;
55037;SDS011;40937;53.594;10.034;2023-11-21T01:24:35;15.60;;;14.13;;
55037;SDS011;40937;53.594;10.034;2023-11-21T01:27:02;15.88;;;14.57;;
55037;SDS011;40937;53.594;10.034;2023-11-21T01:29:30;17.00;;;15.27;;
55037;SDS011;40937;53.594;10.034;2023-11-21T01:31:57;15.15;;;13.82;;
55037;SDS011;40937;53.594;10.034;2023-11-21T01:34:26;15.88;;;14.35;;
55037;SDS011;40937;53.594;10.034;2023-11-21T01:36:54;16.90;;;15.45;;
55037;SDS011;40937;53.594;10.034;2023-11-21T01:39:22;14.40;;;13.13;;
55037;SDS011;40937;53.594;10.034;2023-11-21T01:41:52;14.88;;;13.57;;
55037;SDS011;40937;53.594;10.034;2023-11-21T01:44:19;15.98;;;12.63;;
55037;SDS011;40937;53.594;10.034;2023-11-21T01:46:47;14.98;;;13.52;;
55037;SDS011;40937;53.594;10.034;2023-11-21T01:49:14;14.55;;;13.23;;
55037;SDS011;40937;53.594;10.034;2023-11-21T01:51:47;13.88;;;12.57;;
55037;SDS011;40937;53.594;10.034;2023-11-21T01:54:18;12.68;;;11.35;;
55037;SDS011;40937;53.594;10.034;2023-11-21T01:56:47;12.77;;;11.50;;
55037;SDS011;40937;53.594;10.034;2023-11-21T01:59:21;11.23;;;10.30;;
55037;SDS011;40937;53.594;10.034;2023-11-21T02:01:48;11.40;;;10.35;;
55037;SDS011;40937;53.594;10.034;2023-11-21T02:06:50;11.32;;;9.80;;
55037;SDS011;40937;53.594;10.034;2023-11-21T02:09:23;10.32;;;9.43;;
55037;SDS011;40937;53.594;10.034;2023-11-21T02:14:23;9.15;;;8.45;;
55037;SDS011;40937;53.594;10.034;2023-11-21T02:16:54;9.77;;;8.98;;
55037;SDS011;40937;53.594;10.034;2023-11-21T02:19:23;10.27;;;9.43;;
55037;SDS011;40937;53.594;10.034;2023-11-21T02:21:56;9.90;;;9.18;;
55037;SDS011;40937;53.594;10.034;2023-11-21T02:24:28;9.25;;;8.48;;
55037;SDS011;40937;53.594;10.034;2023-11-21T02:26:57;10.00;;;9.15;;
55037;SDS011;40937;53.594;10.034;2023-11-21T02:29:24;9.75;;;8.93;;
55037;SDS011;40937;53.594;10.034;2023-11-21T02:31:54;10.57;;;8.60;;
55037;SDS011;40937;53.594;10.034;2023-11-21T02:34:22;9.27;;;8.57;;
55037;SDS011;40937;53.594;10.034;2023-11-21T02:36:50;9.43;;;8.73;;
55037;SDS011;40937;53.594;10.034;2023-11-21T02:39:17;9.38;;;8.68;;
55037;SDS011;40937;53.594;10.034;2023-11-21T02:41:53;9.38;;;8.57;;
55037;SDS011;40937;53.594;10.034;2023-11-21T02:44:20;9.77;;;8.93;;
55037;SDS011;40937;53.594;10.034;2023-11-21T02:46:48;9.10;;;8.35;;
55037;SDS011;40937;53.594;10.034;2023-11-21T02:49:18;10.27;;;9.45;;
55037;SDS011;40937;53.594;10.034;2023-11-21T02:51:45;10.50;;;9.40;;
55037;SDS011;40937;53.594;10.034;2023-11-21T02:54:12;9.65;;;8.85;;
55037;SDS011;40937;53.594;10.034;2023-11-21T02:56:39;9.43;;;8.70;;
55037;SDS011;40937;53.594;10.034;2023-11-21T02:59:08;9.07;;;8.27;;
55037;SDS011;40937;53.594;10.034;2023-11-21T03:01:37;8.80;;;8.10;;
55037;SDS011;40937;53.594;10.034;2023-11-21T03:04:04;8.57;;;7.88;;
55037;SDS011;40937;53.594;10.034;2023-11-21T03:06:33;8.50;;;7.80;;
55037;SDS011;40937;53.594;10.034;2023-11-21T03:09:00;8.85;;;8.05;;
55037;SDS011;40937;53.594;10.034;2023-11-21T03:11:27;9.45;;;8.65;;
55037;SDS011;40937;53.594;10.034;2023-11-21T03:13:55;9.40;;;8.52;;
55037;SDS011;40937;53.594;10.034;2023-11-21T03:16:23;8.48;;;7.90;;
55037;SDS011;40937;53.594;10.034;2023-11-21T03:18:51;8.40;;;7.75;;
55037;SDS011;40937;53.594;10.034;2023-11-21T03:21:19;8.38;;;7.57;;
55037;SDS011;40937;53.594;10.034;2023-11-21T03:23:46;9.63;;;8.38;;
55037;SDS011;40937;53.594;10.034;2023-11-21T03:26:13;8.25;;;7.65;;
55037;SDS011;40937;53.594;10.034;2023-11-21T03:28:40;8.45;;;7.65;;
55037;SDS011;40937;53.594;10.034;2023-11-21T03:31:07;8.75;;;8.05;;
55037;SDS011;40937;53.594;10.034;2023-11-21T03:33:37;8.68;;;7.97;;
55037;SDS011;40937;53.594;10.034;2023-11-21T03:36:04;10.07;;;8.60;;
55037;SDS011;40937;53.594;10.034;2023-11-21T03:38:33;10.10;;;9.00;;
55037;SDS011;40937;53.594;10.034;2023-11-21T03:41:00;9.05;;;8.35;;
55037;SDS011;40937;53.594;10.034;2023-11-21T03:43:28;13.48;;;8.75;;
55037;SDS011;40937;53.594;10.034;2023-11-21T03:45:55;9.80;;;8.80;;
55037;SDS011;40937;53.594;10.034;2023-11-21T03:48:22;13.43;;;9.27;;
55037;SDS011;40937;53.594;10.034;2023-11-21T03:50:51;10.52;;;9.50;;
55037;SDS011;40937;53.594;10.034;2023-11-21T03:53:18;9.52;;;8.60;;
55037;SDS011;40937;53.594;10.034;2023-11-21T03:55:45;9.70;;;8.80;;
55037;SDS011;40937;53.594;10.034;2023-11-21T03:58:12;9.43;;;8.57;;
55037;SDS011;40937;53.594;10.034;2023-11-21T04:00:39;9.63;;;8.77;;
55037;SDS011;40937;53.594;10.034;2023-11-21T04:03:07;10.23;;;9.30;;
55037;SDS011;40937;53.594;10.034;2023-11-21T04:05:34;10.05;;;9.15;;
55037;SDS011;40937;53.594;10.034;2023-11-21T04:08:02;9.15;;;8.35;;
55037;SDS011;40937;53.594;10.034;2023-11-21T04:10:30;9.32;;;8.43;;
55037;SDS011;40937;53.594;10.034;2023-11-21T04:12:57;10.80;;;9.10;;
55037;SDS011;40937;53.594;10.034;2023-11-21T04:15:25;10.85;;;9.95;;
55037;SDS011;40937;53.594;10.034;2023-11-21T04:17:52;9.93;;;8.70;;
55037;SDS011;40937;53.594;10.034;2023-11-21T04:20:19;11.27;;;10.18;;
55037;SDS011;40937;53.594;10.034;2023-11-21T04:22:48;10.32;;;9.40;;
55037;SDS011;40937;53.594;10.034;2023-11-21T04:25:17;10.35;;;9.50;;
55037;SDS011;40937;53.594;10.034;2023-11-21T04:27:44;9.60;;;8.90;;
55037;SDS011;40937;53.594;10.034;2023-11-21T04:30:12;10.10;;;9.30;;
55037;SDS011;40937;53.594;10.034;2023-11-21T04:32:40;10.82;;;9.73;;
55037;SDS011;40937;53.594;10.034;2023-11-21T04:35:08;9.70;;;8.88;;
55037;SDS011;40937;53.594;10.034;2023-11-21T04:37:35;10.70;;;9.55;;
55037;SDS011;40937;53.594;10.034;2023-11-21T04:40:03;11.00;;;9.98;;
55037;SDS011;40937;53.594;10.034;2023-11-21T04:42:34;10.40;;;9.15;;
55037;SDS011;40937;53.594;10.034;2023-11-21T04:45:02;9.57;;;8.85;;
55037;SDS011;40937;53.594;10.034;2023-11-21T04:47:34;11.40;;;10.20;;
55037;SDS011;40937;53.594;10.034;2023-11-21T04:50:01;9.93;;;9.13;;
55037;SDS011;40937;53.594;10.034;2023-11-21T04:52:29;10.07;;;9.07;;
55037;SDS011;40937;53.594;10.034;2023-11-21T04:54:56;10.25;;;9.02;;
55037;SDS011;40937;53.594;10.034;2023-11-21T04:57:24;10.73;;;9.68;;
55037;SDS011;40937;53.594;10.034;2023-11-21T04:59:52;9.95;;;9.15;;
55037;SDS011;40937;53.594;10.034;2023-11-21T05:02:19;9.32;;;8.43;;
55037;SDS011;40937;53.594;10.034;2023-11-21T05:04:47;10.48;;;9.57;;
55037;SDS011;40937;53.594;10.034;2023-11-21T05:07:14;9.65;;;8.75;;
55037;SDS011;40937;53.594;10.034;2023-11-21T05:09:42;10.82;;;9.50;;
55037;SDS011;40937;53.594;10.034;2023-11-21T05:12:11;9.70;;;8.80;;
55037;SDS011;40937;53.594;10.034;2023-11-21T05:14:40;11.20;;;10.07;;
55037;SDS011;40937;53.594;10.034;2023-11-21T05:17:09;10.52;;;9.52;;
55037;SDS011;40937;53.594;10.034;2023-11-21T05:19:36;10.45;;;9.55;;
55037;SDS011;40937;53.594;10.034;2023-11-21T05:22:04;9.38;;;8.32;;
55037;SDS011;40937;53.594;10.034;2023-11-21T05:24:31;10.98;;;9.88;;
55037;SDS011;40937;53.594;10.034;2023-11-21T05:26:58;9.85;;;9.05;;
55037;SDS011;40937;53.594;10.034;2023-11-21T05:29:25;9.98;;;9.07;;
55037;SDS011;40937;53.594;10.034;2023-11-21T05:31:53;9.65;;;8.77;;
55037;SDS011;40937;53.594;10.034;2023-11-21T05:34:21;9.18;;;8.30;;
55037;SDS011;40937;53.594;10.034;2023-11-21T05:36:49;9.27;;;8.52;;
55037;SDS011;40937;53.594;10.034;2023-11-21T05:39:17;10.68;;;9.10;;
55037;SDS011;40937;53.594;10.034;2023-11-21T05:41:45;8.65;;;7.85;;
55037;SDS011;40937;53.594;10.034;2023-11-21T05:44:12;12.63;;;8.85;;
55037;SDS011;40937;53.594;10.034;2023-11-21T05:46:40;9.50;;;8.75;;
55037;SDS011;40937;53.594;10.034;2023-11-21T05:49:08;9.00;;;8.30;;
55037;SDS011;40937;53.594;10.034;2023-11-21T05:51:37;9.27;;;8.32;;
55037;SDS011;40937;53.594;10.034;2023-11-21T05:54:04;24.45;;;8.75;;
55037;SDS011;40937;53.594;10.034;2023-11-21T05:56:32;9.73;;;8.52;;
55037;SDS011;40937;53.594;10.034;2023-11-21T05:58:59;9.95;;;9.07;;
55037;SDS011;40937;53.594;10.034;2023-11-21T06:01:27;9.80;;;9.05;;
55037;SDS011;40937;53.594;10.034;2023-11-21T06:03:54;9.43;;;8.55;;
55037;SDS011;40937;53.594;10.034;2023-11-21T06:06:21;9.55;;;8.75;;
55037;SDS011;40937;53.594;10.034;2023-11-21T06:08:51;9.70;;;8.73;;
55037;SDS011;40937;53.594;10.034;2023-11-21T06:11:18;10.35;;;9.45;;
55037;SDS011;40937;53.594;10.034;2023-11-21T06:13:46;9.82;;;8.90;;
55037;SDS011;40937;53.594;10.034;2023-11-21T06:16:13;9.73;;;8.80;;
55037;SDS011;40937;53.594;10.034;2023-11-21T06:18:42;10.23;;;9.43;;
55037;SDS011;40937;53.594;10.034;2023-11-21T06:21:10;10.00;;;9.18;;
55037;SDS011;40937;53.594;10.034;2023-11-21T06:23:37;10.77;;;9.77;;
55037;SDS011;40937;53.594;10.034;2023-11-21T06:26:06;10.48;;;9.68;;
55037;SDS011;40937;53.594;10.034;2023-11-21T06:28:34;9.77;;;8.85;;
55037;SDS011;40937;53.594;10.034;2023-11-21T06:31:02;10.27;;;9.48;;
55037;SDS011;40937;53.594;10.034;2023-11-21T06:33:30;9.60;;;8.65;;
55037;SDS011;40937;53.594;10.034;2023-11-21T06:35:58;9.70;;;8.80;;
55037;SDS011;40937;53.594;10.034;2023-11-21T06:38:25;9.68;;;8.93;;
55037;SDS011;40937;53.594;10.034;2023-11-21T06:40:55;10.73;;;9.70;;
55037;SDS011;40937;53.594;10.034;2023-11-21T06:43:25;9.57;;;8.35;;
55037;SDS011;40937;53.594;10.034;2023-11-21T06:45:52;9.40;;;8.70;;
55037;SDS011;40937;53.594;10.034;2023-11-21T06:48:20;9.50;;;8.63;;
55037;SDS011;40937;53.594;10.034;2023-11-21T06:50:47;9.90;;;9.10;;
55037;SDS011;40937;53.594;10.034;2023-11-21T06:53:14;9.27;;;8.43;;
55037;SDS011;40937;53.594;10.034;2023-11-21T06:55:41;10.73;;;9.63;;
55037;SDS011;40937;53.594;10.034;2023-11-21T06:58:08;10.30;;;9.40;;
55037;SDS011;40937;53.594;10.034;2023-11-21T07:00:37;9.38;;;8.43;;
55037;SDS011;40937;53.594;10.034;2023-11-21T07:03:04;10.30;;;9.32;;
55037;SDS011;40937;53.594;10.034;2023-11-21T07:05:31;10.27;;;9.32;;
55037;SDS011;40937;53.594;10.034;2023-11-21T07:07:58;10.82;;;9.88;;
55037;SDS011;40937;53.594;10.034;2023-11-21T07:10:30;9.57;;;8.75;;
55037;SDS011;40937;53.594;10.034;2023-11-21T07:12:57;10.23;;;9.00;;
55037;SDS011;40937;53.594;10.034;2023-11-21T07:15:24;11.77;;;9.00;;
55037;SDS011;40937;53.594;10.034;2023-11-21T07:17:53;10.25;;;9.05;;
55037;SDS011;40937;53.594;10.034;2023-11-21T07:20:20;9.05;;;8.35;;
55037;SDS011;40937;53.594;10.034;2023-11-21T07:22:47;10.07;;;9.13;;
55037;SDS011;40937;53.594;10.034;2023-11-21T07:25:15;9.30;;;8.40;;
55037;SDS011;40937;53.594;10.034;2023-11-21T07:27:42;9.50;;;8.55;;
55037;SDS011;40937;53.594;10.034;2023-11-21T07:30:10;9.35;;;8.35;;
55037;SDS011;40937;53.594;10.034;2023-11-21T07:32:38;9.10;;;8.40;;
55037;SDS011;40937;53.594;10.034;2023-11-21T07:35:08;9.05;;;8.25;;
55037;SDS011;40937;53.594;10.034;2023-11-21T07:37:35;10.43;;;8.52;;
55037;SDS011;40937;53.594;10.034;2023-11-21T07:40:03;9.57;;;8.80;;
55037;SDS011;40937;53.594;10.034;2023-11-21T07:42:31;8.88;;;8.18;;
55037;SDS011;40937;53.594;10.034;2023-11-21T07:44:59;9.93;;;9.07;;
55037;SDS011;40937;53.594;10.034;2023-11-21T07:47:26;10.52;;;9.57;;
55037;SDS011;40937;53.594;10.034;2023-11-21T07:49:53;8.93;;;8.27;;
55037;SDS011;40937;53.594;10.034;2023-11-21T07:52:22;8.60;;;7.90;;
55037;SDS011;40937;53.594;10.034;2023-11-21T07:54:50;9.07;;;7.78;;
55037;SDS011;40937;53.594;10.034;2023-11-21T07:57:17;9.15;;;7.13;;
55037;SDS011;40937;53.594;10.034;2023-11-21T07:59:45;8.95;;;7.95;;
55037;SDS011;40937;53.594;10.034;2023-11-21T08:02:12;12.80;;;8.30;;
55037;SDS011;40937;53.594;10.034;2023-11-21T08:04:40;8.07;;;7.43;;
55037;SDS011;40937;53.594;10.034;2023-11-21T08:07:07;8.60;;;7.20;;
55037;SDS011;40937;53.594;10.034;2023-11-21T08:09:36;7.65;;;6.95;;
55037;SDS011;40937;53.594;10.034;2023-11-21T08:12:04;7.55;;;6.40;;
55037;SDS011;40937;53.594;10.034;2023-11-21T08:14:32;10.15;;;6.30;;
55037;SDS011;40937;53.594;10.034;2023-11-21T08:16:59;7.55;;;6.72;;
55037;SDS011;40937;53.594;10.034;2023-11-21T08:19:26;6.55;;;5.95;;
55037;SDS011;40937;53.594;10.034;2023-11-21T08:21:53;7.07;;;6.03;;
55037;SDS011;40937;53.594;10.034;2023-11-21T08:24:21;6.50;;;5.80;;
55037;SDS011;40937;53.594;10.034;2023-11-21T08:26:49;10.15;;;5.45;;
55037;SDS011;40937;53.594;10.034;2023-11-21T08:29:17;5.85;;;5.07;;
55037;SDS011;40937;53.594;10.034;2023-11-21T08:31:45;7.55;;;5.80;;
55037;SDS011;40937;53.594;10.034;2023-11-21T08:34:13;5.30;;;4.80;;
55037;SDS011;40937;53.594;10.034;2023-11-21T08:36:41;5.75;;;5.35;;
55037;SDS011;40937;53.594;10.034;2023-11-21T08:39:09;5.88;;;5.38;;
55037;SDS011;40937;53.594;10.034;2023-11-21T08:41:37;5.30;;;4.80;;
55037;SDS011;40937;53.594;10.034;2023-11-21T08:44:05;6.68;;;4.88;;
55037;SDS011;40937;53.594;10.034;2023-11-21T08:46:33;5.53;;;5.00;;
55037;SDS011;40937;53.594;10.034;2023-11-21T08:49:02;5.05;;;4.57;;
55037;SDS011;40937;53.594;10.034;2023-11-21T08:51:30;6.20;;;5.65;;
55037;SDS011;40937;53.594;10.034;2023-11-21T08:53:57;5.22;;;4.32;;
55037;SDS011;40937;53.594;10.034;2023-11-21T08:56:26;6.82;;;4.95;;
55037;SDS011;40937;53.594;10.034;2023-11-21T08:58:54;4.65;;;4.35;;
55037;SDS011;40937;53.594;10.034;2023-11-21T09:01:22;6.15;;;4.05;;
55037;SDS011;40937;53.594;10.034;2023-11-21T09:03:50;6.50;;;4.25;;
55037;SDS011;40937;53.594;10.034;2023-11-21T09:06:17;6.93;;;4.75;;
55037;SDS011;40937;53.594;10.034;2023-11-21T09:08:45;4.90;;;4.50;;
55037;SDS011;40937;53.594;10.034;2023-11-21T09:11:13;6.25;;;4.43;;
55037;SDS011;40937;53.594;10.034;2023-11-21T09:13:40;4.65;;;4.32;;
55037;SDS011;40937;53.594;10.034;2023-11-21T09:16:07;5.72;;;5.20;;
55037;SDS011;40937;53.594;10.034;2023-11-21T09:18:36;5.15;;;4.75;;
55037;SDS011;40937;53.594;10.034;2023-11-21T09:21:03;7.15;;;4.97;;
55037;SDS011;40937;53.594;10.034;2023-11-21T09:23:31;5.57;;;4.95;;
55037;SDS011;40937;53.594;10.034;2023-11-21T09:25:58;5.53;;;5.03;;
55037;SDS011;40937;53.594;10.034;2023-11-21T09:28:26;5.32;;;4.93;;
55037;SDS011;40937;53.594;10.034;2023-11-21T09:30:53;5.38;;;4.57;;
55037;SDS011;40937;53.594;10.034;2023-11-21T09:33:21;6.07;;;5.13;;
55037;SDS011;40937;53.594;10.034;2023-11-21T09:35:51;6.05;;;4.78;;
55037;SDS011;40937;53.594;10.034;2023-11-21T09:38:19;4.68;;;4.38;;
55037;SDS011;40937;53.594;10.034;2023-11-21T09:40:47;7.38;;;4.43;;
55037;SDS011;40937;53.594;10.034;2023-11-21T09:43:16;5.10;;;4.70;;
55037;SDS011;40937;53.594;10.034;2023-11-21T09:45:45;4.32;;;3.92;;
55037;SDS011;40937;53.594;10.034;2023-11-21T09:48:13;5.55;;;5.05;;
55037;SDS011;40937;53.594;10.034;2023-11-21T09:50:42;4.03;;;3.72;;
55037;SDS011;40937;53.594;10.034;2023-11-21T09:53:13;4.53;;;4.10;;
55037;SDS011;40937;53.594;10.034;2023-11-21T09:55:45;6.50;;;4.10;;
55037;SDS011;40937;53.594;10.034;2023-11-21T09:58:13;4.22;;;3.53;;
55037;SDS011;40937;53.594;10.034;2023-11-21T10:00:41;3.33;;;3.03;;
55037;SDS011;40937;53.594;10.034;2023-11-21T10:03:10;4.20;;;3.65;;
55037;SDS011;40937;53.594;10.034;2023-11-21T10:05:38;4.28;;;3.92;;
55037;SDS011;40937;53.594;10.034;2023-11-21T10:08:07;4.07;;;3.78;;
55037;SDS011;40937;53.594;10.034;2023-11-21T10:10:37;3.78;;;3.50;;
55037;SDS011;40937;53.594;10.034;2023-11-21T10:13:08;3.90;;;3.70;;
55037;SDS011;40937;53.594;10.034;2023-11-21T10:15:38;3.45;;;3.15;;
55037;SDS011;40937;53.594;10.034;2023-11-21T10:18:10;3.00;;;2.80;;
55037;SDS011;40937;53.594;10.034;2023-11-21T10:20:40;3.80;;;3.53;;
55037;SDS011;40937;53.594;10.034;2023-11-21T10:23:09;3.58;;;3.38;;
55037;SDS011;40937;53.594;10.034;2023-11-21T10:25:40;3.78;;;3.33;;
55037;SDS011;40937;53.594;10.034;2023-11-21T10:28:07;3.42;;;2.92;;
55037;SDS011;40937;53.594;10.034;2023-11-21T10:30:37;3.00;;;2.75;;
55037;SDS011;40937;53.594;10.034;2023-11-21T10:33:06;4.95;;;3.35;;
55037;SDS011;40937;53.594;10.034;2023-11-21T10:35:44;3.10;;;2.83;;
55037;SDS011;40937;53.594;10.034;2023-11-21T10:38:14;3.58;;;3.25;;
55037;SDS011;40937;53.594;10.034;2023-11-21T10:40:43;3.20;;;2.88;;
55037;SDS011;40937;53.594;10.034;2023-11-21T10:43:12;10.88;;;3.22;;
55037;SDS011;40937;53.594;10.034;2023-11-21T10:45:40;3.38;;;3.17;;
55037;SDS011;40937;53.594;10.034;2023-11-21T10:48:09;4.35;;;2.80;;
55037;SDS011;40937;53.594;10.034;2023-11-21T10:50:37;3.13;;;2.88;;
55037;SDS011;40937;53.594;10.034;2023-11-21T10:53:04;6.78;;;5.53;;
55037;SDS011;40937;53.594;10.034;2023-11-21T10:55:32;4.30;;;3.55;;
55037;SDS011;40937;53.594;10.034;2023-11-21T10:58:02;3.33;;;3.03;;
55037;SDS011;40937;53.594;10.034;2023-11-21T11:00:31;3.85;;;3.55;;
55037;SDS011;40937;53.594;10.034;2023-11-21T11:03:00;6.30;;;3.60;;
55037;SDS011;40937;53.594;10.034;2023-11-21T11:05:28;3.58;;;3.28;;
55037;SDS011;40937;53.594;10.034;2023-11-21T11:07:58;3.42;;;3.22;;
55037;SDS011;40937;53.594;10.034;2023-11-21T11:10:29;3.47;;;3.15;;
55037;SDS011;40937;53.594;10.034;2023-11-21T11:12:57;4.55;;;3.60;;
55037;SDS011;40937;53.594;10.034;2023-11-21T11:15:27;3.50;;;3.05;;
55037;SDS011;40937;53.594;10.034;2023-11-21T11:17:55;8.10;;;4.20;;
55037;SDS011;40937;53.594;10.034;2023-11-21T11:20:23;3.83;;;3.10;;
55037;SDS011;40937;53.594;10.034;2023-11-21T11:23:04;3.03;;;2.83;;
55037;SDS011;40937;53.594;10.034;2023-11-21T11:25:46;3.72;;;3.05;;
55037;SDS011;40937;53.594;10.034;2023-11-21T11:28:21;5.78;;;3.38;;
55037;SDS011;40937;53.594;10.034;2023-11-21T11:31:00;4.47;;;3.83;;
55037;SDS011;40937;53.594;10.034;2023-11-21T11:33:35;3.65;;;2.88;;
55037;SDS011;40937;53.594;10.034;2023-11-21T11:36:06;5.20;;;3.28;;
55037;SDS011;40937;53.594;10.034;2023-11-21T11:38:44;3.50;;;3.20;;
55037;SDS011;40937;53.594;10.034;2023-11-21T11:41:12;3.63;;;3.33;;
55037;SDS011;40937;53.594;10.034;2023-11-21T11:43:39;3.28;;;2.97;;
55037;SDS011;40937;53.594;10.034;2023-11-21T11:46:11;3.30;;;3.00;;
55037;SDS011;40937;53.594;10.034;2023-11-21T11:48:40;3.70;;;3.05;;
55037;SDS011;40937;53.594;10.034;2023-11-21T11:51:09;3.88;;;2.95;;
55037;SDS011;40937;53.594;10.034;2023-11-21T11:53:40;5.05;;;3.20;;
55037;SDS011;40937;53.594;10.034;2023-11-21T11:56:27;3.22;;;2.92;;
55037;SDS011;40937;53.594;10.034;2023-11-21T11:58:57;3.03;;;2.72;;
55037;SDS011;40937;53.594;10.034;2023-11-21T12:01:26;4.00;;;3.28;;
55037;SDS011;40937;53.594;10.034;2023-11-21T12:07:00;4.07;;;3.35;;
55037;SDS011;40937;53.594;10.034;2023-11-21T12:09:29;4.88;;;3.40;;
55037;SDS011;40937;53.594;10.034;2023-11-21T12:11:58;3.00;;;2.80;;
55037;SDS011;40937;53.594;10.034;2023-11-21T12:14:26;3.30;;;2.97;;
55037;SDS011;40937;53.594;10.034;2023-11-21T12:16:56;3.40;;;3.13;;
55037;SDS011;40937;53.594;10.034;2023-11-21T12:19:23;3.08;;;2.83;;
55037;SDS011;40937;53.594;10.034;2023-11-21T12:21:51;3.10;;;2.90;;
55037;SDS011;40937;53.594;10.034;2023-11-21T12:24:18;3.95;;;3.10;;
55037;SDS011;40937;53.594;10.034;2023-11-21T12:26:45;3.22;;;2.92;;
55037;SDS011;40937;53.594;10.034;2023-11-21T12:29:13;2.90;;;2.70;;
55037;SDS011;40937;53.594;10.034;2023-11-21T12:31:42;3.17;;;2.88;;
55037;SDS011;40937;53.594;10.034;2023-11-21T12:34:11;4.78;;;3.40;;
55037;SDS011;40937;53.594;10.034;2023-11-21T12:36:39;3.08;;;2.88;;
55037;SDS011;40937;53.594;10.034;2023-11-21T12:39:06;4.00;;;3.63;;
55037;SDS011;40937;53.594;10.034;2023-11-21T12:41:34;3.63;;;3.35;;
55037;SDS011;40937;53.594;10.034;2023-11-21T12:44:02;4.07;;;3.00;;
55037;SDS011;40937;53.594;10.034;2023-11-21T12:46:30;3.22;;;2.92;;
55037;SDS011;40937;53.594;10.034;2023-11-21T12:48:59;3.08;;;2.70;;
55037;SDS011;40937;53.594;10.034;2023-11-21T12:51:27;3.10;;;2.80;;
55037;SDS011;40937;53.594;10.034;2023-11-21T12:53:55;3.55;;;3.00;;
55037;SDS011;40937;53.594;10.034;2023-11-21T12:56:24;3.17;;;2.80;;
55037;SDS011;40937;53.594;10.034;2023-11-21T12:58:53;3.78;;;3.15;;
55037;SDS011;40937;53.594;10.034;2023-11-21T13:01:25;3.95;;;3.05;;
55037;SDS011;40937;53.594;10.034;2023-11-21T13:03:56;5.32;;;3.25;;
55037;SDS011;40937;53.594;10.034;2023-11-21T13:06:24;5.35;;;2.75;;
55037;SDS011;40937;53.594;10.034;2023-11-21T13:08:53;5.25;;;3.17;;
55037;SDS011;40937;53.594;10.034;2023-11-21T13:11:22;2.95;;;2.63;;
55037;SDS011;40937;53.594;10.034;2023-11-21T13:13:51;3.15;;;2.95;;
55037;SDS011;40937;53.594;10.034;2023-11-21T13:16:20;2.92;;;2.72;;
55037;SDS011;40937;53.594;10.034;2023-11-21T13:18:47;3.30;;;3.05;;
55037;SDS011;40937;53.594;10.034;2023-11-21T13:21:14;3.08;;;2.88;;
55037;SDS011;40937;53.594;10.034;2023-11-21T13:23:43;2.90;;;2.70;;
55037;SDS011;40937;53.594;10.034;2023-11-21T13:26:13;3.50;;;3.20;;
55037;SDS011;40937;53.594;10.034;2023-11-21T13:28:41;3.60;;;3.30;;
55037;SDS011;40937;53.594;10.034;2023-11-21T13:31:11;3.95;;;3.65;;
55037;SDS011;40937;53.594;10.034;2023-11-21T13:33:52;3.22;;;2.92;;
55037;SDS011;40937;53.594;10.034;2023-11-21T13:36:24;3.22;;;3.03;;
55037;SDS011;40937;53.594;10.034;2023-11-21T13:38:56;5.10;;;3.47;;
55037;SDS011;40937;53.594;10.034;2023-11-21T13:41:25;5.57;;;2.75;;
55037;SDS011;40937;53.594;10.034;2023-11-21T13:43:56;3.22;;;3.00;;
55037;SDS011;40937;53.594;10.034;2023-11-21T13:46:31;3.13;;;2.92;;
55037;SDS011;40937;53.594;10.034;2023-11-21T13:49:02;4.10;;;2.63;;
55037;SDS011;40937;53.594;10.034;2023-11-21T13:51:35;3.00;;;2.80;;
55037;SDS011;40937;53.594;10.034;2023-11-21T13:54:07;3.25;;;2.78;;
55037;SDS011;40937;53.594;10.034;2023-11-21T13:56:36;3.00;;;2.80;;
55037;SDS011;40937;53.594;10.034;2023-11-21T13:59:05;3.33;;;3.03;;
55037;SDS011;40937;53.594;10.034;2023-11-21T14:01:42;3.90;;;3.20;;
55037;SDS011;40937;53.594;10.034;2023-11-21T14:04:20;3.67;;;2.72;;
55037;SDS011;40937;53.594;10.034;2023-11-21T14:07:01;4.35;;;2.90;;
55037;SDS011;40937;53.594;10.034;2023-11-21T14:09:44;3.92;;;3.00;;
55037;SDS011;40937;53.594;10.034;2023-11-21T14:12:13;3.13;;;2.88;;
55037;SDS011;40937;53.594;10.034;2023-11-21T14:14:41;3.15;;;2.85;;
55037;SDS011;40937;53.594;10.034;2023-11-21T14:17:09;3.80;;;3.50;;
55037;SDS011;40937;53.594;10.034;2023-11-21T14:19:37;8.20;;;3.40;;
55037;SDS011;40937;53.594;10.034;2023-11-21T14:22:06;3.63;;;3.20;;
55037;SDS011;40937;53.594;10.034;2023-11-21T14:24:35;3.33;;;3.08;;
55037;SDS011;40937;53.594;10.034;2023-11-21T14:27:02;3.65;;;3.38;;
55037;SDS011;40937;53.594;10.034;2023-11-21T14:29:32;3.78;;;3.33;;
55037;SDS011;40937;53.594;10.034;2023-11-21T14:34:31;3.42;;;3.13;;
55037;SDS011;40937;53.594;10.034;2023-11-21T14:36:58;2.63;;;2.42;;
55037;SDS011;40937;53.594;10.034;2023-11-21T14:39:29;3.60;;;1.88;;
55037;SDS011;40937;53.594;10.034;2023-11-21T14:41:56;3.42;;;2.60;;
55037;SDS011;40937;53.594;10.034;2023-11-21T14:44:25;2.90;;;2.63;;
55037;SDS011;40937;53.594;10.034;2023-11-21T14:46:56;2.95;;;2.70;;